sensor_id;sensor_type;location;lat;lon;timestamp;temperature;humidity
17066;DHT22;23120;52.336;21.182;2023-07-16T00:00:13;20.40;85.90
17066;DHT22;23120;52.336;21.182;2023-07-16T00:02:42;20.40;86.10
17066;DHT22;23120;52.336;21.182;2023-07-16T00:05:09;20.40;86.60
17066;DHT22;23120;52.336;21.182;2023-07-16T00:07:36;20.30;87.40
17066;DHT22;23120;52.336;21.182;2023-07-16T00:10:03;20.20;87.50
17066;DHT22;23120;52.336;21.182;2023-07-16T00:12:30;20.20;88.80
17066;DHT22;23120;52.336;21.182;2023-07-16T00:14:57;20.20;88.20
17066;DHT22;23120;52.336;21.182;2023-07-16T00:17:23;20.10;88.90
17066;DHT22;23120;52.336;21.182;2023-07-16T00:19:52;20.10;89.20
17066;DHT22;23120;52.336;21.182;2023-07-16T00:22:30;20.10;89.00
17066;DHT22;23120;52.336;21.182;2023-07-16T00:24:57;20.10;89.20
17066;DHT22;23120;52.336;21.182;2023-07-16T00:27:24;20.10;89.20
17066;DHT22;23120;52.336;21.182;2023-07-16T00:29:52;20.00;89.10
17066;DHT22;23120;52.336;21.182;2023-07-16T00:32:19;20.00;89.20
17066;DHT22;23120;52.336;21.182;2023-07-16T00:34:46;20.00;89.60
17066;DHT22;23120;52.336;21.182;2023-07-16T00:37:14;20.00;89.10
17066;DHT22;23120;52.336;21.182;2023-07-16T00:39:41;19.90;89.00
17066;DHT22;23120;52.336;21.182;2023-07-16T00:42:08;19.90;89.70
17066;DHT22;23120;52.336;21.182;2023-07-16T00:44:35;19.90;90.00
17066;DHT22;23120;52.336;21.182;2023-07-16T00:47:02;19.80;90.10
17066;DHT22;23120;52.336;21.182;2023-07-16T00:49:29;19.80;90.30
17066;DHT22;23120;52.336;21.182;2023-07-16T00:51:58;19.80;90.80
17066;DHT22;23120;52.336;21.182;2023-07-16T00:54:27;19.70;90.80
17066;DHT22;23120;52.336;21.182;2023-07-16T00:56:55;19.70;91.60
17066;DHT22;23120;52.336;21.182;2023-07-16T00:59:22;19.60;91.30
17066;DHT22;23120;52.336;21.182;2023-07-16T01:01:49;19.60;91.40
17066;DHT22;23120;52.336;21.182;2023-07-16T01:04:17;19.60;91.50
17066;DHT22;23120;52.336;21.182;2023-07-16T01:06:48;19.60;91.70
17066;DHT22;23120;52.336;21.182;2023-07-16T01:09:41;19.50;91.60
17066;DHT22;23120;52.336;21.182;2023-07-16T01:12:15;19.60;91.70
17066;DHT22;23120;52.336;21.182;2023-07-16T01:14:51;19.50;91.70
17066;DHT22;23120;52.336;21.182;2023-07-16T01:17:36;19.50;91.50
17066;DHT22;23120;52.336;21.182;2023-07-16T01:20:20;19.50;91.20
17066;DHT22;23120;52.336;21.182;2023-07-16T01:23:07;19.50;91.60
17066;DHT22;23120;52.336;21.182;2023-07-16T01:26:02;19.40;91.70
17066;DHT22;23120;52.336;21.182;2023-07-16T01:28:44;19.30;91.60
17066;DHT22;23120;52.336;21.182;2023-07-16T01:31:17;19.40;91.70
17066;DHT22;23120;52.336;21.182;2023-07-16T01:33:44;19.30;91.60
17066;DHT22;23120;52.336;21.182;2023-07-16T01:36:13;19.30;92.00
17066;DHT22;23120;52.336;21.182;2023-07-16T01:38:40;19.20;91.90
17066;DHT22;23120;52.336;21.182;2023-07-16T01:41:07;19.20;92.10
17066;DHT22;23120;52.336;21.182;2023-07-16T01:43:34;19.20;91.90
17066;DHT22;23120;52.336;21.182;2023-07-16T01:46:01;19.20;91.90
17066;DHT22;23120;52.336;21.182;2023-07-16T01:48:32;19.20;91.90
17066;DHT22;23120;52.336;21.182;2023-07-16T01:50:59;19.10;91.90
17066;DHT22;23120;52.336;21.182;2023-07-16T01:53:26;19.10;91.90
17066;DHT22;23120;52.336;21.182;2023-07-16T01:55:53;19.10;92.00
17066;DHT22;23120;52.336;21.182;2023-07-16T01:58:20;19.10;92.00
17066;DHT22;23120;52.336;21.182;2023-07-16T02:00:49;19.10;92.30
17066;DHT22;23120;52.336;21.182;2023-07-16T02:03:16;19.00;92.50
17066;DHT22;23120;52.336;21.182;2023-07-16T02:05:45;19.00;92.50
17066;DHT22;23120;52.336;21.182;2023-07-16T02:08:11;18.90;92.50
17066;DHT22;23120;52.336;21.182;2023-07-16T02:10:38;19.00;92.40
17066;DHT22;23120;52.336;21.182;2023-07-16T02:13:05;19.00;92.50
17066;DHT22;23120;52.336;21.182;2023-07-16T02:15:32;18.90;92.30
17066;DHT22;23120;52.336;21.182;2023-07-16T02:17:59;18.90;92.70
17066;DHT22;23120;52.336;21.182;2023-07-16T02:20:26;18.80;92.70
17066;DHT22;23120;52.336;21.182;2023-07-16T02:22:54;18.90;92.60
17066;DHT22;23120;52.336;21.182;2023-07-16T02:25:21;18.80;92.80
17066;DHT22;23120;52.336;21.182;2023-07-16T02:27:48;18.80;93.10
17066;DHT22;23120;52.336;21.182;2023-07-16T02:30:15;18.70;93.30
17066;DHT22;23120;52.336;21.182;2023-07-16T02:32:43;18.60;93.20
17066;DHT22;23120;52.336;21.182;2023-07-16T02:35:10;18.60;93.40
17066;DHT22;23120;52.336;21.182;2023-07-16T02:37:37;18.60;93.40
17066;DHT22;23120;52.336;21.182;2023-07-16T02:40:07;18.60;93.50
17066;DHT22;23120;52.336;21.182;2023-07-16T02:42:34;18.60;93.20
17066;DHT22;23120;52.336;21.182;2023-07-16T02:45:01;18.60;93.50
17066;DHT22;23120;52.336;21.182;2023-07-16T02:47:27;18.60;93.70
17066;DHT22;23120;52.336;21.182;2023-07-16T02:49:54;18.60;93.80
17066;DHT22;23120;52.336;21.182;2023-07-16T02:52:21;18.60;93.90
17066;DHT22;23120;52.336;21.182;2023-07-16T02:54:48;18.50;93.90
17066;DHT22;23120;52.336;21.182;2023-07-16T02:57:16;18.50;93.80
17066;DHT22;23120;52.336;21.182;2023-07-16T02:59:43;18.50;93.90
17066;DHT22;23120;52.336;21.182;2023-07-16T03:02:10;18.50;94.10
17066;DHT22;23120;52.336;21.182;2023-07-16T03:04:37;18.50;94.20
17066;DHT22;23120;52.336;21.182;2023-07-16T03:07:05;18.50;94.20
17066;DHT22;23120;52.336;21.182;2023-07-16T03:09:32;18.50;94.40
17066;DHT22;23120;52.336;21.182;2023-07-16T03:11:58;18.40;94.50
17066;DHT22;23120;52.336;21.182;2023-07-16T03:14:27;18.50;94.40
17066;DHT22;23120;52.336;21.182;2023-07-16T03:16:54;18.40;94.70
17066;DHT22;23120;52.336;21.182;2023-07-16T03:19:21;18.40;94.60
17066;DHT22;23120;52.336;21.182;2023-07-16T03:21:47;18.50;94.70
17066;DHT22;23120;52.336;21.182;2023-07-16T03:24:15;18.40;94.90
17066;DHT22;23120;52.336;21.182;2023-07-16T03:26:42;18.40;95.10
17066;DHT22;23120;52.336;21.182;2023-07-16T03:29:10;18.50;95.30
17066;DHT22;23120;52.336;21.182;2023-07-16T03:31:38;18.40;95.20
17066;DHT22;23120;52.336;21.182;2023-07-16T03:34:05;18.40;95.50
17066;DHT22;23120;52.336;21.182;2023-07-16T03:36:32;18.50;95.50
17066;DHT22;23120;52.336;21.182;2023-07-16T03:38:59;18.50;96.20
17066;DHT22;23120;52.336;21.182;2023-07-16T03:41:26;18.50;96.50
17066;DHT22;23120;52.336;21.182;2023-07-16T03:43:53;18.60;96.50
17066;DHT22;23120;52.336;21.182;2023-07-16T03:46:20;18.50;96.60
17066;DHT22;23120;52.336;21.182;2023-07-16T03:48:49;18.50;96.20
17066;DHT22;23120;52.336;21.182;2023-07-16T03:51:16;18.60;96.00
17066;DHT22;23120;52.336;21.182;2023-07-16T03:53:44;18.60;96.50
17066;DHT22;23120;52.336;21.182;2023-07-16T03:56:11;18.60;96.60
17066;DHT22;23120;52.336;21.182;2023-07-16T03:58:37;18.70;96.40
17066;DHT22;23120;52.336;21.182;2023-07-16T04:01:05;18.70;97.20
17066;DHT22;23120;52.336;21.182;2023-07-16T04:03:32;18.80;97.40
17066;DHT22;23120;52.336;21.182;2023-07-16T04:06:04;18.90;97.60
17066;DHT22;23120;52.336;21.182;2023-07-16T04:08:31;19.00;97.80
17066;DHT22;23120;52.336;21.182;2023-07-16T04:10:58;19.00;98.00
17066;DHT22;23120;52.336;21.182;2023-07-16T04:13:25;19.10;98.00
17066;DHT22;23120;52.336;21.182;2023-07-16T04:15:52;19.20;98.90
17066;DHT22;23120;52.336;21.182;2023-07-16T04:18:21;19.30;98.80
17066;DHT22;23120;52.336;21.182;2023-07-16T04:20:48;19.40;98.60
17066;DHT22;23120;52.336;21.182;2023-07-16T04:23:16;19.40;99.00
17066;DHT22;23120;52.336;21.182;2023-07-16T04:25:43;19.50;99.00
17066;DHT22;23120;52.336;21.182;2023-07-16T04:28:11;19.60;98.70
17066;DHT22;23120;52.336;21.182;2023-07-16T04:30:38;19.60;99.30
17066;DHT22;23120;52.336;21.182;2023-07-16T04:33:05;19.70;98.90
17066;DHT22;23120;52.336;21.182;2023-07-16T04:35:33;19.70;99.10
17066;DHT22;23120;52.336;21.182;2023-07-16T04:38:00;19.80;99.20
17066;DHT22;23120;52.336;21.182;2023-07-16T04:40:28;19.90;99.60
17066;DHT22;23120;52.336;21.182;2023-07-16T04:42:55;20.00;99.10
17066;DHT22;23120;52.336;21.182;2023-07-16T04:45:22;20.10;98.80
17066;DHT22;23120;52.336;21.182;2023-07-16T04:47:49;20.20;98.50
17066;DHT22;23120;52.336;21.182;2023-07-16T04:50:16;20.30;98.50
17066;DHT22;23120;52.336;21.182;2023-07-16T04:52:43;20.30;99.10
17066;DHT22;23120;52.336;21.182;2023-07-16T04:55:10;20.40;98.40
17066;DHT22;23120;52.336;21.182;2023-07-16T04:57:40;20.50;98.30
17066;DHT22;23120;52.336;21.182;2023-07-16T05:00:07;20.50;98.50
17066;DHT22;23120;52.336;21.182;2023-07-16T05:02:34;20.80;98.70
17066;DHT22;23120;52.336;21.182;2023-07-16T05:05:01;21.10;98.30
17066;DHT22;23120;52.336;21.182;2023-07-16T05:07:29;21.40;97.30
17066;DHT22;23120;52.336;21.182;2023-07-16T05:09:56;21.60;97.20
17066;DHT22;23120;52.336;21.182;2023-07-16T05:12:26;21.90;97.00
17066;DHT22;23120;52.336;21.182;2023-07-16T05:14:54;22.20;96.50
17066;DHT22;23120;52.336;21.182;2023-07-16T05:17:21;22.50;95.80
17066;DHT22;23120;52.336;21.182;2023-07-16T05:19:48;22.80;95.40
17066;DHT22;23120;52.336;21.182;2023-07-16T05:22:15;23.10;94.60
17066;DHT22;23120;52.336;21.182;2023-07-16T05:24:42;23.30;94.80
17066;DHT22;23120;52.336;21.182;2023-07-16T05:27:10;23.60;94.20
17066;DHT22;23120;52.336;21.182;2023-07-16T05:29:36;23.80;93.90
17066;DHT22;23120;52.336;21.182;2023-07-16T05:32:06;24.00;93.20
17066;DHT22;23120;52.336;21.182;2023-07-16T05:34:33;24.20;93.00
17066;DHT22;23120;52.336;21.182;2023-07-16T05:37:00;24.40;92.80
17066;DHT22;23120;52.336;21.182;2023-07-16T05:39:27;24.60;92.30
17066;DHT22;23120;52.336;21.182;2023-07-16T05:41:53;24.80;91.90
17066;DHT22;23120;52.336;21.182;2023-07-16T05:44:20;25.00;91.70
17066;DHT22;23120;52.336;21.182;2023-07-16T05:46:47;25.10;91.40
17066;DHT22;23120;52.336;21.182;2023-07-16T05:49:15;25.30;91.40
17066;DHT22;23120;52.336;21.182;2023-07-16T05:51:42;25.50;91.50
17066;DHT22;23120;52.336;21.182;2023-07-16T05:54:09;25.60;90.70
17066;DHT22;23120;52.336;21.182;2023-07-16T05:56:36;25.80;90.20
17066;DHT22;23120;52.336;21.182;2023-07-16T05:59:03;25.90;90.30
17066;DHT22;23120;52.336;21.182;2023-07-16T06:01:33;26.00;89.60
17066;DHT22;23120;52.336;21.182;2023-07-16T06:04:00;26.10;89.40
17066;DHT22;23120;52.336;21.182;2023-07-16T06:06:29;26.20;89.30
17066;DHT22;23120;52.336;21.182;2023-07-16T06:08:56;26.20;88.80
17066;DHT22;23120;52.336;21.182;2023-07-16T06:11:23;26.40;88.00
17066;DHT22;23120;52.336;21.182;2023-07-16T06:13:53;26.50;87.60
17066;DHT22;23120;52.336;21.182;2023-07-16T06:16:20;26.60;89.00
17066;DHT22;23120;52.336;21.182;2023-07-16T06:18:46;26.70;87.40
17066;DHT22;23120;52.336;21.182;2023-07-16T06:21:13;26.80;87.00
17066;DHT22;23120;52.336;21.182;2023-07-16T06:23:42;27.00;86.40
17066;DHT22;23120;52.336;21.182;2023-07-16T06:26:09;27.10;87.10
17066;DHT22;23120;52.336;21.182;2023-07-16T06:28:36;27.20;85.40
17066;DHT22;23120;52.336;21.182;2023-07-16T06:31:05;27.40;85.20
17066;DHT22;23120;52.336;21.182;2023-07-16T06:33:32;27.50;85.20
17066;DHT22;23120;52.336;21.182;2023-07-16T06:35:59;27.70;85.40
17066;DHT22;23120;52.336;21.182;2023-07-16T06:38:26;27.90;83.80
17066;DHT22;23120;52.336;21.182;2023-07-16T06:40:55;28.00;83.70
17066;DHT22;23120;52.336;21.182;2023-07-16T06:43:21;28.20;83.90
17066;DHT22;23120;52.336;21.182;2023-07-16T06:45:49;28.10;82.20
17066;DHT22;23120;52.336;21.182;2023-07-16T06:48:16;28.30;81.30
17066;DHT22;23120;52.336;21.182;2023-07-16T06:50:43;28.40;80.40
17066;DHT22;23120;52.336;21.182;2023-07-16T06:53:10;28.60;80.20
17066;DHT22;23120;52.336;21.182;2023-07-16T06:55:37;28.80;79.10
17066;DHT22;23120;52.336;21.182;2023-07-16T06:58:10;28.90;79.80
17066;DHT22;23120;52.336;21.182;2023-07-16T07:00:40;29.00;79.10
17066;DHT22;23120;52.336;21.182;2023-07-16T07:03:10;29.20;77.30
17066;DHT22;23120;52.336;21.182;2023-07-16T07:05:41;29.30;77.40
17066;DHT22;23120;52.336;21.182;2023-07-16T07:08:10;29.40;77.20
17066;DHT22;23120;52.336;21.182;2023-07-16T07:10:40;29.50;75.60
17066;DHT22;23120;52.336;21.182;2023-07-16T07:13:08;29.50;75.60
17066;DHT22;23120;52.336;21.182;2023-07-16T07:15:35;29.50;74.90
17066;DHT22;23120;52.336;21.182;2023-07-16T07:18:02;29.70;74.30
17066;DHT22;23120;52.336;21.182;2023-07-16T07:20:29;29.80;74.80
17066;DHT22;23120;52.336;21.182;2023-07-16T07:22:56;29.90;74.70
17066;DHT22;23120;52.336;21.182;2023-07-16T07:25:23;29.90;74.40
17066;DHT22;23120;52.336;21.182;2023-07-16T07:27:54;30.10;73.60
17066;DHT22;23120;52.336;21.182;2023-07-16T07:30:22;30.20;74.30
17066;DHT22;23120;52.336;21.182;2023-07-16T07:32:49;30.10;73.10
17066;DHT22;23120;52.336;21.182;2023-07-16T07:35:19;30.20;70.40
17066;DHT22;23120;52.336;21.182;2023-07-16T07:37:46;30.40;70.50
17066;DHT22;23120;52.336;21.182;2023-07-16T07:40:15;30.50;70.20
17066;DHT22;23120;52.336;21.182;2023-07-16T07:42:42;30.60;69.00
17066;DHT22;23120;52.336;21.182;2023-07-16T07:45:09;30.60;68.20
17066;DHT22;23120;52.336;21.182;2023-07-16T07:47:38;30.50;68.30
17066;DHT22;23120;52.336;21.182;2023-07-16T07:50:15;30.80;67.80
17066;DHT22;23120;52.336;21.182;2023-07-16T07:52:46;30.70;66.50
17066;DHT22;23120;52.336;21.182;2023-07-16T07:55:13;30.80;66.70
17066;DHT22;23120;52.336;21.182;2023-07-16T07:57:40;30.60;66.70
17066;DHT22;23120;52.336;21.182;2023-07-16T08:00:08;30.60;66.70
17066;DHT22;23120;52.336;21.182;2023-07-16T08:02:51;30.50;66.60
17066;DHT22;23120;52.336;21.182;2023-07-16T08:05:18;30.60;65.60
17066;DHT22;23120;52.336;21.182;2023-07-16T08:08:05;30.70;65.90
17066;DHT22;23120;52.336;21.182;2023-07-16T08:10:31;30.60;66.00
17066;DHT22;23120;52.336;21.182;2023-07-16T08:13:02;30.90;66.20
17066;DHT22;23120;52.336;21.182;2023-07-16T08:15:29;31.00;66.30
17066;DHT22;23120;52.336;21.182;2023-07-16T08:17:58;31.10;65.20
17066;DHT22;23120;52.336;21.182;2023-07-16T08:20:25;31.20;64.60
17066;DHT22;23120;52.336;21.182;2023-07-16T08:22:52;31.20;64.10
17066;DHT22;23120;52.336;21.182;2023-07-16T08:25:19;31.20;63.70
17066;DHT22;23120;52.336;21.182;2023-07-16T08:27:47;31.40;64.00
17066;DHT22;23120;52.336;21.182;2023-07-16T08:30:16;31.50;63.90
17066;DHT22;23120;52.336;21.182;2023-07-16T08:32:43;31.60;62.90
17066;DHT22;23120;52.336;21.182;2023-07-16T08:35:11;31.60;62.00
17066;DHT22;23120;52.336;21.182;2023-07-16T08:37:45;31.80;62.20
17066;DHT22;23120;52.336;21.182;2023-07-16T08:40:13;31.60;62.10
17066;DHT22;23120;52.336;21.182;2023-07-16T08:42:41;31.80;61.80
17066;DHT22;23120;52.336;21.182;2023-07-16T08:45:11;31.90;62.10
17066;DHT22;23120;52.336;21.182;2023-07-16T08:47:38;31.90;61.30
17066;DHT22;23120;52.336;21.182;2023-07-16T08:50:06;32.10;60.00
17066;DHT22;23120;52.336;21.182;2023-07-16T08:52:34;32.10;59.70
17066;DHT22;23120;52.336;21.182;2023-07-16T08:55:01;32.30;59.70
17066;DHT22;23120;52.336;21.182;2023-07-16T08:57:30;32.40;59.20
17066;DHT22;23120;52.336;21.182;2023-07-16T08:59:57;32.30;58.20
17066;DHT22;23120;52.336;21.182;2023-07-16T09:02:25;32.20;57.20
17066;DHT22;23120;52.336;21.182;2023-07-16T09:04:54;32.40;56.90
17066;DHT22;23120;52.336;21.182;2023-07-16T09:07:21;32.60;57.10
17066;DHT22;23120;52.336;21.182;2023-07-16T09:09:56;32.60;57.00
17066;DHT22;23120;52.336;21.182;2023-07-16T09:12:25;32.60;57.20
17066;DHT22;23120;52.336;21.182;2023-07-16T09:14:53;32.60;57.00
17066;DHT22;23120;52.336;21.182;2023-07-16T09:17:23;32.80;56.70
17066;DHT22;23120;52.336;21.182;2023-07-16T09:19:50;32.90;56.80
17066;DHT22;23120;52.336;21.182;2023-07-16T09:22:19;33.00;57.30
17066;DHT22;23120;52.336;21.182;2023-07-16T09:24:49;33.10;57.10
17066;DHT22;23120;52.336;21.182;2023-07-16T09:27:19;33.10;56.80
17066;DHT22;23120;52.336;21.182;2023-07-16T09:29:47;33.10;56.30
17066;DHT22;23120;52.336;21.182;2023-07-16T09:32:17;33.30;55.30
17066;DHT22;23120;52.336;21.182;2023-07-16T09:34:48;33.50;55.70
17066;DHT22;23120;52.336;21.182;2023-07-16T09:37:16;33.60;54.70
17066;DHT22;23120;52.336;21.182;2023-07-16T09:39:46;33.70;54.10
17066;DHT22;23120;52.336;21.182;2023-07-16T09:42:13;33.70;53.80
17066;DHT22;23120;52.336;21.182;2023-07-16T09:44:44;33.70;52.50
17066;DHT22;23120;52.336;21.182;2023-07-16T09:47:13;33.90;52.30
17066;DHT22;23120;52.336;21.182;2023-07-16T09:49:40;34.10;52.60
17066;DHT22;23120;52.336;21.182;2023-07-16T09:52:10;34.20;53.10
17066;DHT22;23120;52.336;21.182;2023-07-16T09:55:02;34.20;52.30
17066;DHT22;23120;52.336;21.182;2023-07-16T09:57:35;34.30;51.80
17066;DHT22;23120;52.336;21.182;2023-07-16T10:00:12;34.40;50.40
17066;DHT22;23120;52.336;21.182;2023-07-16T10:02:42;34.30;49.70
17066;DHT22;23120;52.336;21.182;2023-07-16T10:05:16;34.30;49.60
17066;DHT22;23120;52.336;21.182;2023-07-16T10:07:55;34.70;49.30
17066;DHT22;23120;52.336;21.182;2023-07-16T10:10:38;34.80;49.60
17066;DHT22;23120;52.336;21.182;2023-07-16T10:13:07;34.70;49.40
17066;DHT22;23120;52.336;21.182;2023-07-16T10:15:36;34.60;49.20
17066;DHT22;23120;52.336;21.182;2023-07-16T10:18:03;34.70;48.30
17066;DHT22;23120;52.336;21.182;2023-07-16T10:20:31;35.00;49.10
17066;DHT22;23120;52.336;21.182;2023-07-16T10:23:10;35.10;49.20
17066;DHT22;23120;52.336;21.182;2023-07-16T10:25:39;35.20;48.50
17066;DHT22;23120;52.336;21.182;2023-07-16T10:28:08;35.10;48.10
17066;DHT22;23120;52.336;21.182;2023-07-16T10:30:37;35.20;48.40
17066;DHT22;23120;52.336;21.182;2023-07-16T10:36:18;35.30;48.40
17066;DHT22;23120;52.336;21.182;2023-07-16T10:38:49;35.30;47.80
17066;DHT22;23120;52.336;21.182;2023-07-16T10:41:17;35.30;48.10
17066;DHT22;23120;52.336;21.182;2023-07-16T10:43:48;35.30;48.10
17066;DHT22;23120;52.336;21.182;2023-07-16T10:46:20;35.30;49.10
17066;DHT22;23120;52.336;21.182;2023-07-16T10:48:47;35.30;48.90
17066;DHT22;23120;52.336;21.182;2023-07-16T10:51:14;35.30;50.60
17066;DHT22;23120;52.336;21.182;2023-07-16T10:53:42;35.30;49.00
17066;DHT22;23120;52.336;21.182;2023-07-16T10:56:09;35.20;48.40
17066;DHT22;23120;52.336;21.182;2023-07-16T10:58:36;35.20;48.00
17066;DHT22;23120;52.336;21.182;2023-07-16T11:01:04;35.20;47.40
17066;DHT22;23120;52.336;21.182;2023-07-16T11:03:32;35.10;48.60
17066;DHT22;23120;52.336;21.182;2023-07-16T11:06:05;35.00;48.90
17066;DHT22;23120;52.336;21.182;2023-07-16T11:08:32;34.90;49.00
17066;DHT22;23120;52.336;21.182;2023-07-16T11:11:00;34.90;49.00
17066;DHT22;23120;52.336;21.182;2023-07-16T11:13:27;34.70;48.40
17066;DHT22;23120;52.336;21.182;2023-07-16T11:15:57;34.80;49.40
17066;DHT22;23120;52.336;21.182;2023-07-16T11:18:24;34.80;49.40
17066;DHT22;23120;52.336;21.182;2023-07-16T11:20:53;34.80;49.70
17066;DHT22;23120;52.336;21.182;2023-07-16T11:23:48;34.90;49.90
17066;DHT22;23120;52.336;21.182;2023-07-16T11:26:15;34.90;50.30
17066;DHT22;23120;52.336;21.182;2023-07-16T11:28:42;34.80;50.10
17066;DHT22;23120;52.336;21.182;2023-07-16T11:31:14;34.90;49.90
17066;DHT22;23120;52.336;21.182;2023-07-16T11:33:45;34.90;51.10
17066;DHT22;23120;52.336;21.182;2023-07-16T11:36:16;35.00;51.40
17066;DHT22;23120;52.336;21.182;2023-07-16T11:38:48;34.80;51.60
17066;DHT22;23120;52.336;21.182;2023-07-16T11:41:20;35.00;51.30
17066;DHT22;23120;52.336;21.182;2023-07-16T11:43:47;35.00;51.70
17066;DHT22;23120;52.336;21.182;2023-07-16T11:46:20;34.90;51.70
17066;DHT22;23120;52.336;21.182;2023-07-16T11:48:48;35.10;51.80
17066;DHT22;23120;52.336;21.182;2023-07-16T11:51:26;34.90;51.70
17066;DHT22;23120;52.336;21.182;2023-07-16T11:53:57;34.80;51.70
17066;DHT22;23120;52.336;21.182;2023-07-16T11:56:26;35.00;51.80
17066;DHT22;23120;52.336;21.182;2023-07-16T11:58:53;35.20;51.20
17066;DHT22;23120;52.336;21.182;2023-07-16T12:01:23;35.40;51.20
17066;DHT22;23120;52.336;21.182;2023-07-16T12:03:50;35.50;50.90
17066;DHT22;23120;52.336;21.182;2023-07-16T12:06:18;35.60;50.20
17066;DHT22;23120;52.336;21.182;2023-07-16T12:08:47;35.40;50.70
17066;DHT22;23120;52.336;21.182;2023-07-16T12:11:16;35.40;52.00
17066;DHT22;23120;52.336;21.182;2023-07-16T12:13:43;35.50;51.20
17066;DHT22;23120;52.336;21.182;2023-07-16T12:16:18;35.60;51.40
17066;DHT22;23120;52.336;21.182;2023-07-16T12:18:48;35.70;51.70
17066;DHT22;23120;52.336;21.182;2023-07-16T12:21:18;35.40;51.40
17066;DHT22;23120;52.336;21.182;2023-07-16T12:23:57;35.40;51.80
17066;DHT22;23120;52.336;21.182;2023-07-16T12:26:24;35.40;50.90
17066;DHT22;23120;52.336;21.182;2023-07-16T12:28:51;35.50;50.70
17066;DHT22;23120;52.336;21.182;2023-07-16T12:31:18;35.50;51.10
17066;DHT22;23120;52.336;21.182;2023-07-16T12:33:45;35.70;51.30
17066;DHT22;23120;52.336;21.182;2023-07-16T12:36:13;35.80;51.20
17066;DHT22;23120;52.336;21.182;2023-07-16T12:38:49;35.80;50.80
17066;DHT22;23120;52.336;21.182;2023-07-16T12:41:52;35.90;51.90
17066;DHT22;23120;52.336;21.182;2023-07-16T12:44:19;35.90;50.90
17066;DHT22;23120;52.336;21.182;2023-07-16T12:47:09;35.90;50.80
17066;DHT22;23120;52.336;21.182;2023-07-16T12:49:44;36.10;51.20
17066;DHT22;23120;52.336;21.182;2023-07-16T12:52:18;36.10;49.80
17066;DHT22;23120;52.336;21.182;2023-07-16T12:54:45;36.10;49.90
17066;DHT22;23120;52.336;21.182;2023-07-16T12:57:33;36.40;49.10
17066;DHT22;23120;52.336;21.182;2023-07-16T13:00:51;36.30;49.10
17066;DHT22;23120;52.336;21.182;2023-07-16T13:03:21;36.50;49.80
17066;DHT22;23120;52.336;21.182;2023-07-16T13:06:06;36.60;49.50
17066;DHT22;23120;52.336;21.182;2023-07-16T13:08:35;36.80;49.70
17066;DHT22;23120;52.336;21.182;2023-07-16T13:11:30;36.90;49.80
17066;DHT22;23120;52.336;21.182;2023-07-16T13:14:11;37.10;49.10
17066;DHT22;23120;52.336;21.182;2023-07-16T13:16:40;36.70;48.00
17066;DHT22;23120;52.336;21.182;2023-07-16T13:19:11;37.00;47.80
17066;DHT22;23120;52.336;21.182;2023-07-16T13:21:42;37.20;47.90
17066;DHT22;23120;52.336;21.182;2023-07-16T13:24:20;37.10;47.90
17066;DHT22;23120;52.336;21.182;2023-07-16T13:26:56;37.30;47.40
17066;DHT22;23120;52.336;21.182;2023-07-16T13:29:32;37.20;48.10
17066;DHT22;23120;52.336;21.182;2023-07-16T13:32:02;37.20;48.40
17066;DHT22;23120;52.336;21.182;2023-07-16T13:34:31;37.20;47.10
17066;DHT22;23120;52.336;21.182;2023-07-16T13:37:01;37.10;47.30
17066;DHT22;23120;52.336;21.182;2023-07-16T13:39:29;37.00;47.20
17066;DHT22;23120;52.336;21.182;2023-07-16T13:41:57;36.90;46.70
17066;DHT22;23120;52.336;21.182;2023-07-16T13:44:32;37.00;46.80
17066;DHT22;23120;52.336;21.182;2023-07-16T13:47:36;36.70;46.10
17066;DHT22;23120;52.336;21.182;2023-07-16T13:50:06;36.70;46.40
17066;DHT22;23120;52.336;21.182;2023-07-16T13:52:34;36.70;46.20
17066;DHT22;23120;52.336;21.182;2023-07-16T13:55:02;36.70;46.20
17066;DHT22;23120;52.336;21.182;2023-07-16T13:57:41;36.60;46.00
17066;DHT22;23120;52.336;21.182;2023-07-16T14:00:16;36.50;45.70
17066;DHT22;23120;52.336;21.182;2023-07-16T14:02:51;36.60;45.70
17066;DHT22;23120;52.336;21.182;2023-07-16T14:05:27;36.40;46.40
17066;DHT22;23120;52.336;21.182;2023-07-16T14:07:54;36.30;46.50
17066;DHT22;23120;52.336;21.182;2023-07-16T14:10:22;36.00;45.80
17066;DHT22;23120;52.336;21.182;2023-07-16T14:12:53;35.80;45.90
17066;DHT22;23120;52.336;21.182;2023-07-16T14:15:21;35.90;45.90
17066;DHT22;23120;52.336;21.182;2023-07-16T14:17:50;36.00;46.10
17066;DHT22;23120;52.336;21.182;2023-07-16T14:20:17;35.90;45.90
17066;DHT22;23120;52.336;21.182;2023-07-16T14:22:44;36.20;46.40
17066;DHT22;23120;52.336;21.182;2023-07-16T14:25:11;36.40;46.40
17066;DHT22;23120;52.336;21.182;2023-07-16T14:27:39;36.30;45.80
17066;DHT22;23120;52.336;21.182;2023-07-16T14:30:07;36.50;46.40
17066;DHT22;23120;52.336;21.182;2023-07-16T14:32:35;36.70;46.40
17066;DHT22;23120;52.336;21.182;2023-07-16T14:35:02;36.80;45.60
17066;DHT22;23120;52.336;21.182;2023-07-16T14:37:30;36.80;45.60
17066;DHT22;23120;52.336;21.182;2023-07-16T14:40:07;36.80;45.00
17066;DHT22;23120;52.336;21.182;2023-07-16T14:42:35;36.80;44.90
17066;DHT22;23120;52.336;21.182;2023-07-16T14:45:01;36.70;45.10
17066;DHT22;23120;52.336;21.182;2023-07-16T14:47:30;36.70;45.30
17066;DHT22;23120;52.336;21.182;2023-07-16T14:49:58;36.70;45.40
17066;DHT22;23120;52.336;21.182;2023-07-16T14:52:25;36.60;45.50
17066;DHT22;23120;52.336;21.182;2023-07-16T14:54:52;36.60;45.70
17066;DHT22;23120;52.336;21.182;2023-07-16T14:57:18;36.60;45.20
17066;DHT22;23120;52.336;21.182;2023-07-16T14:59:45;36.50;44.20
17066;DHT22;23120;52.336;21.182;2023-07-16T15:02:12;36.40;45.20
17066;DHT22;23120;52.336;21.182;2023-07-16T15:04:39;36.10;45.10
17066;DHT22;23120;52.336;21.182;2023-07-16T15:07:08;35.90;45.80
17066;DHT22;23120;52.336;21.182;2023-07-16T15:09:35;35.70;45.00
17066;DHT22;23120;52.336;21.182;2023-07-16T15:12:04;35.50;45.10
17066;DHT22;23120;52.336;21.182;2023-07-16T15:14:31;35.30;44.90
17066;DHT22;23120;52.336;21.182;2023-07-16T15:16:58;35.00;44.40
17066;DHT22;23120;52.336;21.182;2023-07-16T15:19:25;34.90;45.40
17066;DHT22;23120;52.336;21.182;2023-07-16T15:21:52;34.70;46.20
17066;DHT22;23120;52.336;21.182;2023-07-16T15:24:21;34.60;45.70
17066;DHT22;23120;52.336;21.182;2023-07-16T15:26:47;34.50;47.40
17066;DHT22;23120;52.336;21.182;2023-07-16T15:29:14;34.30;46.80
17066;DHT22;23120;52.336;21.182;2023-07-16T15:31:41;34.30;47.60